Time;durP1;ratioP1;P1;durP2;ratioP2;P2;SDS_P1;SDS_P2;PMS_P1;PMS_P2;Temp;Humidity;BMP_temperature;BMP_pressure;BME280_temperature;BME280_humidity;BME280_pressure;Samples;Min_cycle;Max_cycle;Signal;HPM_P1;HPM_P2
2023/07/10 00:08:52;;;;;;;4.33;2.67;;;27.50;30.10;;;;;;21090875;28;19924;-55
2023/07/10 00:18:52;;;;;;;4.27;2.47;;;27.40;30.40;;;;;;21090328;28;20455;-56
2023/07/10 00:28:57;;;;;;;7.23;2.87;;;27.30;30.50;;;;;;21086379;28;20078;-55
2023/07/10 00:39:17;;;;;;;6.28;3.42;;;27.10;31.20;;;;;;21087770;28;20084;-55
2023/07/10 00:49:37;;;;;;;4.88;2.92;;;27.00;31.50;;;;;;21086889;28;20123;-56
2023/07/10 00:59:40;;;;;;;5.05;3.15;;;26.90;31.70;;;;;;21086241;28;20409;-56
2023/07/10 01:09:49;;;;;;;18.48;8.85;;;26.70;32.30;;;;;;21084739;28;20052;-55
2023/07/10 01:19:54;;;;;;;10.50;6.32;;;26.60;32.50;;;;;;21082861;28;20052;-56
2023/07/10 01:30:06;;;;;;;4.20;2.22;;;26.50;32.70;;;;;;21083379;28;20055;-55
2023/07/10 01:40:13;;;;;;;11.40;7.70;;;26.40;33.10;;;;;;21082844;28;20447;-55
2023/07/10 01:50:14;;;;;;;8.85;3.03;;;26.30;33.20;;;;;;21081628;28;20472;-55
2023/07/10 02:00:15;;;;;;;7.77;2.50;;;26.20;33.30;;;;;;21080693;28;20044;-56
2023/07/10 02:10:16;;;;;;;4.40;2.42;;;26.00;33.70;;;;;;21079436;28;20079;-56
2023/07/10 02:20:16;;;;;;;5.27;2.53;;;25.90;34.10;;;;;;21079475;28;20067;-54
2023/07/10 02:30:17;;;;;;;6.03;2.90;;;25.90;34.30;;;;;;21078754;28;20115;-54
2023/07/10 02:40:18;;;;;;;5.90;3.03;;;25.60;34.60;;;;;;21078220;28;20099;-54
2023/07/10 02:50:19;;;;;;;3.53;2.43;;;25.40;34.60;;;;;;21077446;28;20072;-55
2023/07/10 03:00:20;;;;;;;5.23;2.83;;;25.20;34.80;;;;;;21077600;28;20058;-56
2023/07/10 03:10:21;;;;;;;8.77;2.20;;;25.10;35.10;;;;;;21077275;28;20040;-57
2023/07/10 03:20:22;;;;;;;5.60;2.40;;;25.00;35.30;;;;;;21078037;28;20497;-54
2023/07/10 03:30:22;;;;;;;6.43;2.67;;;24.90;35.60;;;;;;21076749;28;20048;-54
2023/07/10 03:40:23;;;;;;;5.90;2.33;;;24.90;35.70;;;;;;21076815;28;20438;-55
2023/07/10 03:50:24;;;;;;;5.70;4.07;;;24.70;35.80;;;;;;21075662;28;20082;-55
2023/07/10 04:00:25;;;;;;;3.60;2.23;;;24.50;36.20;;;;;;21080216;28;20043;-55
2023/07/10 04:10:25;;;;;;;8.02;2.75;;;24.40;36.40;;;;;;21089788;28;20048;-56
2023/07/10 04:20:26;;;;;;;5.38;2.45;;;24.20;36.80;;;;;;21087623;28;20066;-55
2023/07/10 04:30:27;;;;;;;6.22;2.55;;;24.10;36.70;;;;;;21087202;28;20055;-54
2023/07/10 04:40:27;;;;;;;6.70;4.45;;;23.90;37.10;;;;;;21086706;28;20048;-54
2023/07/10 04:50:29;;;;;;;5.95;2.40;;;23.80;37.60;;;;;;21085640;28;20044;-54
2023/07/10 05:00:31;;;;;;;5.83;2.17;;;23.70;38.00;;;;;;21086246;28;20093;-54
2023/07/10 05:10:31;;;;;;;;;;;23.60;38.00;;;;;;21083665;28;20565;-55
2023/07/10 05:20:32;;;;;;;7.00;2.72;;;23.40;38.20;;;;;;21083552;28;19994;-55
2023/07/10 05:30:36;;;;;;;4.97;4.03;;;23.40;38.60;;;;;;21083101;28;20090;-56
2023/07/10 05:40:41;;;;;;;7.93;2.78;;;23.50;38.60;;;;;;21082599;28;20052;-55
2023/07/10 05:50:47;;;;;;;7.38;2.65;;;23.50;38.50;;;;;;21080536;28;20079;-55
2023/07/10 06:00:50;;;;;;;7.75;3.05;;;23.40;38.70;;;;;;21080888;28;20066;-55
2023/07/10 06:10:51;;;;;;;7.97;3.13;;;23.60;39.00;;;;;;21080510;28;20044;-54
2023/07/10 06:20:54;;;;;;;4.72;2.67;;;23.70;39.00;;;;;;21078179;28;20060;-57
2023/07/10 06:30:58;;;;;;;10.98;3.60;;;23.80;38.60;;;;;;21078817;28;20051;-57
2023/07/10 06:40:59;;;;;;;7.25;2.90;;;24.00;38.50;;;;;;21078000;28;20393;-56
2023/07/10 06:51:00;;;;;;;7.93;3.40;;;24.20;38.30;;;;;;21077463;28;20046;-56
2023/07/10 07:01:03;;;;;;;9.90;3.22;;;24.50;37.70;;;;;;21077032;28;20105;-56
2023/07/10 07:11:04;;;;;;;6.97;3.33;;;25.30;36.20;;;;;;21076670;28;20044;-56
2023/07/10 07:21:05;;;;;;;7.93;3.23;;;26.20;35.00;;;;;;21075943;28;20063;-56
2023/07/10 07:31:06;;;;;;;5.10;3.08;;;27.10;32.80;;;;;;21076179;28;20040;-56
2023/07/10 07:41:07;;;;;;;5.60;2.83;;;27.90;29.60;;;;;;21090802;28;20044;-56
2023/07/10 07:51:09;;;;;;;5.75;3.15;;;28.60;28.60;;;;;;21089999;28;20123;-55
2023/07/10 08:01:10;;;;;;;5.43;3.15;;;29.00;29.30;;;;;;21090436;28;20161;-56
2023/07/10 08:11:12;;;;;;;10.57;3.50;;;29.50;30.00;;;;;;21089837;28;20052;-56
2023/07/10 08:21:14;;;;;;;8.32;3.55;;;29.90;29.80;;;;;;21088793;28;20051;-56
2023/07/10 08:31:15;;;;;;;8.20;3.55;;;30.10;30.00;;;;;;21088761;28;20050;-56
2023/07/10 08:41:21;;;;;;;9.85;3.60;;;30.40;30.90;;;;;;21086308;28;20425;-57
2023/07/10 08:51:21;;;;;;;8.32;3.50;;;30.60;32.30;;;;;;21086217;28;20513;-56
2023/07/10 09:01:30;;;;;;;9.47;3.80;;;30.70;32.80;;;;;;21084580;28;20044;-57
2023/07/10 09:11:31;;;;;;;9.50;3.83;;;30.90;32.60;;;;;;21084743;28;20304;-56
2023/07/10 09:21:36;;;;;;;11.15;4.32;;;31.10;32.90;;;;;;21083415;28;20052;-57
2023/07/10 09:32:07;;;;;;;10.43;3.90;;;31.30;32.90;;;;;;21081884;28;20066;-57
2023/07/10 09:42:14;;;;;;;10.23;4.60;;;31.50;33.80;;;;;;21082141;28;20048;-57
2023/07/10 09:52:31;;;;;;;7.85;3.22;;;31.50;34.90;;;;;;21081319;28;20059;-58
2023/07/10 10:02:44;;;;;;;7.95;4.10;;;31.80;33.60;;;;;;21080096;28;20036;-56
2023/07/10 10:12:47;;;;;;;8.75;4.20;;;32.10;33.60;;;;;;21077906;28;20048;-57
2023/07/10 10:22:48;;;;;;;9.68;3.80;;;32.20;33.90;;;;;;21078337;28;20091;-56
2023/07/10 10:33:04;;;;;;;10.07;4.47;;;32.20;32.40;;;;;;21079097;28;20434;-57
2023/07/10 10:44:06;;;;;;;17.35;4.47;;;32.80;32.70;;;;;;21078533;28;20050;-59
2023/07/10 10:54:31;;;;;;;10.38;4.57;;;33.10;32.40;;;;;;21032529;28;20055;-56
2023/07/10 11:04:46;;;;;;;13.27;4.28;;;33.00;32.50;;;;;;21076557;28;20051;-57
2023/07/10 11:14:57;;;;;;;8.80;3.22;;;33.10;31.00;;;;;;21091146;28;20079;-57
2023/07/10 11:25:01;;;;;;;10.85;4.47;;;33.10;30.50;;;;;;21092680;28;20059;-57
2023/07/10 11:35:20;;;;;;;8.57;3.53;;;33.30;29.80;;;;;;21091538;28;20083;-56
2023/07/10 11:45:53;;;;;;;11.00;3.40;;;33.70;28.60;;;;;;21092174;28;20044;-56
2023/07/10 11:55:54;;;;;;;7.47;3.38;;;33.70;27.50;;;;;;21074148;28;20052;-57
2023/07/10 12:05:54;;;;;;;9.07;4.47;;;34.00;26.30;;;;;;21090609;28;20393;-57
2023/07/10 12:16:03;;;;;;;7.28;3.42;;;34.30;26.40;;;;;;21090430;28;20463;-57
2023/07/10 12:26:16;;;;;;;11.55;3.40;;;34.50;25.40;;;;;;21086702;28;20087;-56
2023/07/10 12:36:26;;;;;;;13.50;4.80;;;34.60;25.20;;;;;;21087636;28;20062;-56
2023/07/10 12:46:29;;;;;;;6.03;3.85;;;34.90;25.10;;;;;;21086534;28;20047;-56
2023/07/10 12:56:34;;;;;;;8.23;4.22;;;34.70;25.40;;;;;;21085788;28;20090;-57
2023/07/10 13:06:35;;;;;;;8.18;3.95;;;35.20;23.80;;;;;;21086371;28;20071;-57
2023/07/10 13:16:44;;;;;;;11.70;3.90;;;35.40;23.80;;;;;;21085632;28;20097;-57
2023/07/10 13:26:48;;;;;;;7.30;3.83;;;35.60;24.30;;;;;;21083958;28;20113;-58
2023/07/10 13:36:49;;;;;;;7.38;3.85;;;35.50;24.50;;;;;;21083169;28;20097;-57
2023/07/10 13:46:50;;;;;;;10.13;3.63;;;35.80;24.00;;;;;;21081510;28;20080;-56
2023/07/10 13:56:50;;;;;;;8.53;4.03;;;36.00;23.40;;;;;;21081685;28;20052;-58
2023/07/10 14:06:52;;;;;;;10.85;3.33;;;36.30;23.20;;;;;;21083066;28;20353;-56
2023/07/10 14:16:53;;;;;;;7.13;3.30;;;36.50;23.10;;;;;;21082145;28;20052;-59
2023/07/10 14:26:53;;;;;;;9.15;3.33;;;36.40;22.80;;;;;;21081509;28;20447;-56
2023/07/10 14:36:54;;;;;;;8.38;3.85;;;36.60;22.50;;;;;;21080314;28;20128;-57
2023/07/10 14:46:55;;;;;;;7.27;3.33;;;36.80;21.50;;;;;;21079120;28;20043;-57
2023/07/10 14:56:56;;;;;;;8.27;3.20;;;37.00;20.80;;;;;;21079259;28;20285;-59
2023/07/10 15:06:57;;;;;;;5.82;3.40;;;37.30;19.50;;;;;;21078527;28;20499;-56
2023/07/10 15:16:58;;;;;;;7.93;3.10;;;37.20;20.20;;;;;;21077719;28;20184;-59
2023/07/10 15:26:58;;;;;;;9.32;2.97;;;37.10;20.20;;;;;;21076830;28;20052;-57
2023/07/10 15:36:59;;;;;;;8.20;3.30;;;37.40;19.60;;;;;;21077410;28;20493;-56
2023/07/10 15:47:00;;;;;;;6.72;3.28;;;37.40;19.90;;;;;;21077648;28;20036;-59
2023/07/10 15:57:01;;;;;;;6.37;3.00;;;37.50;19.70;;;;;;21084653;28;20051;-56
2023/07/10 16:07:02;;;;;;;9.23;3.55;;;37.80;19.40;;;;;;21090270;28;20332;-57
2023/07/10 16:17:02;;;;;;;7.03;2.90;;;37.70;19.40;;;;;;21090275;28;20350;-57
2023/07/10 16:27:04;;;;;;;8.57;3.70;;;37.30;19.40;;;;;;21087707;28;20056;-57
2023/07/10 16:37:15;;;;;;;9.90;3.65;;;37.20;20.10;;;;;;21089179;28;20393;-57
2023/07/10 16:47:17;;;;;;;8.38;3.60;;;37.50;20.00;;;;;;21087471;28;20040;-57
2023/07/10 16:57:18;;;;;;;10.75;3.85;;;37.50;20.10;;;;;;21087532;28;20044;-57
2023/07/10 17:07:18;;;;;;;6.40;2.85;;;37.20;19.90;;;;;;21084707;28;20088;-56
2023/07/10 17:17:22;;;;;;;13.85;5.38;;;37.20;20.10;;;;;;21085641;28;20439;-58
2023/07/10 17:27:28;;;;;;;8.63;4.65;;;37.50;20.30;;;;;;21083336;28;20067;-56
2023/07/10 17:37:29;;;;;;;8.85;3.63;;;37.40;20.00;;;;;;21083655;28;20047;-58
2023/07/10 17:47:30;;;;;;;9.07;3.90;;;37.10;20.30;;;;;;21083290;28;20040;-56
2023/07/10 17:57:31;;;;;;;7.03;3.38;;;37.20;20.10;;;;;;21082477;28;20281;-56
2023/07/10 18:07:31;;;;;;;10.88;3.72;;;37.10;20.80;;;;;;21081626;28;20047;-57
2023/07/10 18:17:32;;;;;;;9.43;3.85;;;37.10;20.60;;;;;;21079880;28;20123;-57
2023/07/10 18:27:33;;;;;;;7.43;3.87;;;36.90;20.80;;;;;;21071542;28;20048;-57
2023/07/10 18:37:34;;;;;;;6.85;3.20;;;36.80;20.80;;;;;;21079314;28;20299;-57
2023/07/10 18:47:35;;;;;;;12.77;4.50;;;36.60;21.00;;;;;;21078230;28;20123;-57
2023/07/10 18:57:35;;;;;;;7.38;3.70;;;36.40;21.70;;;;;;21079198;28;20288;-57
2023/07/10 19:07:36;;;;;;;8.23;2.93;;;36.20;21.20;;;;;;21078227;28;20127;-57
2023/07/10 19:17:37;;;;;;;8.65;3.67;;;36.10;21.50;;;;;;21077490;28;20291;-57
2023/07/10 19:27:38;;;;;;;6.30;3.50;;;35.90;21.80;;;;;;21076319;28;20052;-56
2023/07/10 19:37:39;;;;;;;9.20;4.13;;;35.70;22.50;;;;;;21092199;28;20048;-57
2023/07/10 19:47:39;;;;;;;9.02;3.90;;;35.40;22.70;;;;;;21092109;28;20093;-58
2023/07/10 19:57:40;;;;;;;8.93;4.70;;;35.20;22.90;;;;;;21092736;28;20075;-58
2023/07/10 20:07:42;;;;;;;7.97;4.80;;;35.00;23.40;;;;;;21091957;28;20162;-58
2023/07/10 20:17:46;;;;;;;12.00;5.00;;;34.70;24.10;;;;;;21091772;28;20044;-58
2023/07/10 20:27:47;;;;;;;9.40;4.95;;;34.50;24.60;;;;;;21090159;28;20044;-56
2023/07/10 20:37:48;;;;;;;9.18;5.18;;;34.20;24.90;;;;;;21069988;28;20051;-56
2023/07/10 20:47:50;;;;;;;7.97;4.53;;;34.10;25.00;;;;;;21086009;28;20076;-56
2023/07/10 20:57:51;;;;;;;12.18;5.40;;;33.80;25.10;;;;;;21086743;28;20067;-58
2023/07/10 21:07:51;;;;;;;13.73;6.30;;;33.60;25.60;;;;;;21086987;28;20493;-58
2023/07/10 21:17:52;;;;;;;10.65;4.88;;;33.40;26.20;;;;;;21085816;28;20405;-56
2023/07/10 21:27:53;;;;;;;10.55;4.95;;;33.20;26.50;;;;;;21082630;28;20092;-56
2023/07/10 21:37:54;;;;;;;11.00;6.00;;;33.00;26.90;;;;;;21083571;28;20048;-57
2023/07/10 21:47:59;;;;;;;9.10;4.97;;;32.70;26.90;;;;;;21082541;28;20381;-57
2023/07/10 21:57:59;;;;;;;12.57;5.25;;;32.40;27.40;;;;;;21080762;28;20076;-58
2023/07/10 22:08:01;;;;;;;10.25;5.45;;;32.20;27.60;;;;;;21080997;28;20051;-57
2023/07/10 22:18:01;;;;;;;14.68;6.35;;;32.10;27.80;;;;;;21080688;28;20421;-57
2023/07/10 22:28:05;;;;;;;16.13;9.13;;;31.80;28.70;;;;;;21078651;28;20059;-59
2023/07/10 22:38:07;;;;;;;9.70;5.75;;;31.60;29.20;;;;;;21078879;28;20044;-56
2023/07/10 22:48:13;;;;;;;15.23;5.40;;;31.40;29.30;;;;;;21079161;28;20127;-56
2023/07/10 22:58:14;;;;;;;14.90;6.10;;;31.20;29.30;;;;;;21078872;28;20052;-57
2023/07/10 23:08:14;;;;;;;13.05;6.18;;;31.10;30.00;;;;;;21088813;28;20050;-57
2023/07/10 23:18:15;;;;;;;9.73;5.20;;;30.90;30.30;;;;;;21095228;28;20131;-56
2023/07/10 23:28:16;;;;;;;10.55;6.82;;;30.80;30.40;;;;;;21092701;28;20052;-56
2023/07/10 23:38:17;;;;;;;14.48;5.68;;;30.60;30.80;;;;;;21093501;28;20044;-57
2023/07/10 23:48:18;;;;;;;11.98;6.05;;;30.40;30.70;;;;;;21091038;28;20048;-56
2023/07/10 23:58:18;;;;;;;12.07;5.90;;;30.40;30.60;;;;;;21090661;28;20044;-56
